sensor_id;sensor_type;location;lat;lon;timestamp;P1;durP1;ratioP1;P2;durP2;ratioP2
47335;SDS011;33068;51.990;5.926;2023-12-07T00:02:11;105.10;;;44.67;;
47335;SDS011;33068;51.990;5.926;2023-12-07T00:04:39;88.13;;;41.92;;
47335;SDS011;33068;51.990;5.926;2023-12-07T00:07:07;121.05;;;52.40;;
47335;SDS011;33068;51.990;5.926;2023-12-07T00:09:36;95.93;;;45.00;;
47335;SDS011;33068;51.990;5.926;2023-12-07T00:12:04;119.10;;;49.05;;
47335;SDS011;33068;51.990;5.926;2023-12-07T00:14:31;109.00;;;46.60;;
47335;SDS011;33068;51.990;5.926;2023-12-07T00:16:59;98.93;;;44.97;;
47335;SDS011;33068;51.990;5.926;2023-12-07T00:19:26;87.32;;;39.78;;
47335;SDS011;33068;51.990;5.926;2023-12-07T00:21:57;93.70;;;42.97;;
47335;SDS011;33068;51.990;5.926;2023-12-07T00:24:25;86.22;;;42.03;;
47335;SDS011;33068;51.990;5.926;2023-12-07T00:26:55;88.60;;;41.05;;
47335;SDS011;33068;51.990;5.926;2023-12-07T00:29:23;74.60;;;37.67;;
47335;SDS011;33068;51.990;5.926;2023-12-07T00:31:51;78.90;;;38.20;;
47335;SDS011;33068;51.990;5.926;2023-12-07T00:34:19;78.40;;;35.80;;
47335;SDS011;33068;51.990;5.926;2023-12-07T00:36:46;86.85;;;36.63;;
47335;SDS011;33068;51.990;5.926;2023-12-07T00:39:14;81.00;;;37.35;;
47335;SDS011;33068;51.990;5.926;2023-12-07T00:41:42;71.95;;;32.97;;
47335;SDS011;33068;51.990;5.926;2023-12-07T00:44:13;84.63;;;38.03;;
47335;SDS011;33068;51.990;5.926;2023-12-07T00:46:40;89.45;;;37.50;;
47335;SDS011;33068;51.990;5.926;2023-12-07T00:49:08;85.47;;;34.97;;
47335;SDS011;33068;51.990;5.926;2023-12-07T00:51:36;78.10;;;33.58;;
47335;SDS011;33068;51.990;5.926;2023-12-07T00:54:03;89.93;;;37.53;;
47335;SDS011;33068;51.990;5.926;2023-12-07T00:56:30;71.93;;;34.42;;
47335;SDS011;33068;51.990;5.926;2023-12-07T00:58:58;83.63;;;36.25;;
47335;SDS011;33068;51.990;5.926;2023-12-07T01:01:29;81.85;;;34.95;;
47335;SDS011;33068;51.990;5.926;2023-12-07T01:03:56;82.90;;;34.30;;
47335;SDS011;33068;51.990;5.926;2023-12-07T01:06:23;85.43;;;37.63;;
47335;SDS011;33068;51.990;5.926;2023-12-07T01:08:51;79.22;;;35.05;;
47335;SDS011;33068;51.990;5.926;2023-12-07T01:11:18;83.43;;;35.13;;
47335;SDS011;33068;51.990;5.926;2023-12-07T01:13:46;83.38;;;34.13;;
47335;SDS011;33068;51.990;5.926;2023-12-07T01:16:15;76.25;;;34.30;;
47335;SDS011;33068;51.990;5.926;2023-12-07T01:18:47;81.70;;;34.58;;
47335;SDS011;33068;51.990;5.926;2023-12-07T01:21:14;74.50;;;33.38;;
47335;SDS011;33068;51.990;5.926;2023-12-07T01:23:41;82.35;;;33.90;;
47335;SDS011;33068;51.990;5.926;2023-12-07T01:26:09;80.13;;;36.58;;
47335;SDS011;33068;51.990;5.926;2023-12-07T01:28:36;72.90;;;31.30;;
47335;SDS011;33068;51.990;5.926;2023-12-07T01:31:04;80.03;;;34.80;;
47335;SDS011;33068;51.990;5.926;2023-12-07T01:33:31;81.28;;;34.53;;
47335;SDS011;33068;51.990;5.926;2023-12-07T01:36:00;78.15;;;34.53;;
47335;SDS011;33068;51.990;5.926;2023-12-07T01:38:27;74.20;;;34.45;;
47335;SDS011;33068;51.990;5.926;2023-12-07T01:40:55;74.15;;;32.83;;
47335;SDS011;33068;51.990;5.926;2023-12-07T01:43:22;72.28;;;33.47;;
47335;SDS011;33068;51.990;5.926;2023-12-07T01:45:50;69.55;;;31.50;;
47335;SDS011;33068;51.990;5.926;2023-12-07T01:48:19;71.88;;;32.28;;
47335;SDS011;33068;51.990;5.926;2023-12-07T01:50:46;72.57;;;32.33;;
47335;SDS011;33068;51.990;5.926;2023-12-07T01:53:16;68.53;;;31.55;;
47335;SDS011;33068;51.990;5.926;2023-12-07T01:55:44;69.72;;;32.10;;
47335;SDS011;33068;51.990;5.926;2023-12-07T01:58:12;71.60;;;32.13;;
47335;SDS011;33068;51.990;5.926;2023-12-07T02:00:39;75.70;;;33.67;;
47335;SDS011;33068;51.990;5.926;2023-12-07T02:03:07;79.75;;;32.63;;
47335;SDS011;33068;51.990;5.926;2023-12-07T02:05:35;81.75;;;34.03;;
47335;SDS011;33068;51.990;5.926;2023-12-07T02:08:06;73.60;;;31.63;;
47335;SDS011;33068;51.990;5.926;2023-12-07T02:10:35;76.32;;;33.33;;
47335;SDS011;33068;51.990;5.926;2023-12-07T02:13:05;59.70;;;29.55;;
47335;SDS011;33068;51.990;5.926;2023-12-07T02:15:33;71.55;;;31.20;;
47335;SDS011;33068;51.990;5.926;2023-12-07T02:18:03;63.35;;;30.25;;
47335;SDS011;33068;51.990;5.926;2023-12-07T02:20:35;68.53;;;31.40;;
47335;SDS011;33068;51.990;5.926;2023-12-07T02:23:04;68.72;;;31.75;;
47335;SDS011;33068;51.990;5.926;2023-12-07T02:25:37;78.20;;;30.73;;
47335;SDS011;33068;51.990;5.926;2023-12-07T02:28:09;70.30;;;30.20;;
47335;SDS011;33068;51.990;5.926;2023-12-07T02:30:37;69.18;;;30.98;;
47335;SDS011;33068;51.990;5.926;2023-12-07T02:33:04;63.92;;;30.33;;
47335;SDS011;33068;51.990;5.926;2023-12-07T02:35:32;69.40;;;31.98;;
47335;SDS011;33068;51.990;5.926;2023-12-07T02:38:00;70.28;;;33.08;;
47335;SDS011;33068;51.990;5.926;2023-12-07T02:40:28;59.08;;;29.88;;
47335;SDS011;33068;51.990;5.926;2023-12-07T02:42:56;92.07;;;36.75;;
47335;SDS011;33068;51.990;5.926;2023-12-07T02:45:25;82.80;;;33.50;;
47335;SDS011;33068;51.990;5.926;2023-12-07T02:47:55;65.53;;;31.05;;
47335;SDS011;33068;51.990;5.926;2023-12-07T02:50:25;75.55;;;31.88;;
47335;SDS011;33068;51.990;5.926;2023-12-07T02:52:53;79.68;;;33.47;;
47335;SDS011;33068;51.990;5.926;2023-12-07T02:55:21;79.15;;;33.53;;
47335;SDS011;33068;51.990;5.926;2023-12-07T02:57:49;81.40;;;32.85;;
47335;SDS011;33068;51.990;5.926;2023-12-07T03:00:17;75.72;;;33.38;;
47335;SDS011;33068;51.990;5.926;2023-12-07T03:02:47;86.20;;;35.17;;
47335;SDS011;33068;51.990;5.926;2023-12-07T03:05:16;72.10;;;32.92;;
47335;SDS011;33068;51.990;5.926;2023-12-07T03:07:45;97.65;;;36.45;;
47335;SDS011;33068;51.990;5.926;2023-12-07T03:10:12;110.32;;;37.95;;
47335;SDS011;33068;51.990;5.926;2023-12-07T03:12:40;143.32;;;40.97;;
47335;SDS011;33068;51.990;5.926;2023-12-07T03:15:15;138.88;;;40.15;;
47335;SDS011;33068;51.990;5.926;2023-12-07T03:17:42;125.72;;;40.00;;
47335;SDS011;33068;51.990;5.926;2023-12-07T03:20:12;86.35;;;34.17;;
47335;SDS011;33068;51.990;5.926;2023-12-07T03:22:40;110.55;;;37.92;;
47335;SDS011;33068;51.990;5.926;2023-12-07T03:25:08;134.65;;;40.85;;
47335;SDS011;33068;51.990;5.926;2023-12-07T03:27:38;106.70;;;38.75;;
47335;SDS011;33068;51.990;5.926;2023-12-07T03:30:11;160.65;;;44.17;;
47335;SDS011;33068;51.990;5.926;2023-12-07T03:32:42;128.65;;;39.60;;
47335;SDS011;33068;51.990;5.926;2023-12-07T03:35:12;339.60;;;56.22;;
47335;SDS011;33068;51.990;5.926;2023-12-07T03:37:42;211.60;;;48.25;;
47335;SDS011;33068;51.990;5.926;2023-12-07T03:40:10;99.20;;;39.97;;
47335;SDS011;33068;51.990;5.926;2023-12-07T03:42:41;116.63;;;42.03;;
47335;SDS011;33068;51.990;5.926;2023-12-07T03:45:09;177.63;;;49.85;;
47335;SDS011;33068;51.990;5.926;2023-12-07T03:47:36;124.78;;;45.65;;
47335;SDS011;33068;51.990;5.926;2023-12-07T03:50:05;110.13;;;43.58;;
47335;SDS011;33068;51.990;5.926;2023-12-07T03:52:34;115.15;;;44.60;;
47335;SDS011;33068;51.990;5.926;2023-12-07T03:55:05;123.75;;;45.97;;
47335;SDS011;33068;51.990;5.926;2023-12-07T03:57:36;117.82;;;46.40;;
47335;SDS011;33068;51.990;5.926;2023-12-07T04:00:03;114.90;;;49.03;;
47335;SDS011;33068;51.990;5.926;2023-12-07T04:02:33;112.40;;;46.25;;
47335;SDS011;33068;51.990;5.926;2023-12-07T04:05:04;89.75;;;43.05;;
47335;SDS011;33068;51.990;5.926;2023-12-07T04:07:35;79.93;;;39.08;;
47335;SDS011;33068;51.990;5.926;2023-12-07T04:10:06;103.60;;;46.85;;
47335;SDS011;33068;51.990;5.926;2023-12-07T04:12:33;124.65;;;51.95;;
47335;SDS011;33068;51.990;5.926;2023-12-07T04:15:01;107.18;;;50.65;;
47335;SDS011;33068;51.990;5.926;2023-12-07T04:17:31;99.80;;;48.83;;
47335;SDS011;33068;51.990;5.926;2023-12-07T04:19:58;104.55;;;47.53;;
47335;SDS011;33068;51.990;5.926;2023-12-07T04:22:26;109.40;;;49.40;;
47335;SDS011;33068;51.990;5.926;2023-12-07T04:24:55;120.32;;;53.80;;
47335;SDS011;33068;51.990;5.926;2023-12-07T04:27:23;110.63;;;49.63;;
47335;SDS011;33068;51.990;5.926;2023-12-07T04:29:51;101.15;;;48.40;;
47335;SDS011;33068;51.990;5.926;2023-12-07T04:32:19;112.40;;;49.35;;
47335;SDS011;33068;51.990;5.926;2023-12-07T04:34:46;104.28;;;48.22;;
47335;SDS011;33068;51.990;5.926;2023-12-07T04:37:14;99.68;;;46.25;;
47335;SDS011;33068;51.990;5.926;2023-12-07T04:39:41;119.35;;;49.25;;
47335;SDS011;33068;51.990;5.926;2023-12-07T04:42:10;121.88;;;50.85;;
47335;SDS011;33068;51.990;5.926;2023-12-07T04:44:38;100.75;;;47.03;;
47335;SDS011;33068;51.990;5.926;2023-12-07T04:47:06;105.45;;;48.47;;
47335;SDS011;33068;51.990;5.926;2023-12-07T04:49:36;144.77;;;52.20;;
47335;SDS011;33068;51.990;5.926;2023-12-07T04:52:04;183.13;;;57.85;;
47335;SDS011;33068;51.990;5.926;2023-12-07T04:54:32;206.82;;;60.58;;
47335;SDS011;33068;51.990;5.926;2023-12-07T04:57:00;226.85;;;60.75;;
47335;SDS011;33068;51.990;5.926;2023-12-07T04:59:29;139.02;;;51.33;;
47335;SDS011;33068;51.990;5.926;2023-12-07T05:01:58;208.50;;;55.03;;
47335;SDS011;33068;51.990;5.926;2023-12-07T05:04:27;347.05;;;67.40;;
47335;SDS011;33068;51.990;5.926;2023-12-07T05:06:55;229.80;;;64.18;;
47335;SDS011;33068;51.990;5.926;2023-12-07T05:09:22;158.63;;;54.83;;
47335;SDS011;33068;51.990;5.926;2023-12-07T05:11:59;122.75;;;46.75;;
47335;SDS011;33068;51.990;5.926;2023-12-07T05:14:28;374.55;;;68.82;;
47335;SDS011;33068;51.990;5.926;2023-12-07T05:16:57;237.18;;;57.35;;
47335;SDS011;33068;51.990;5.926;2023-12-07T05:19:25;153.05;;;47.60;;
47335;SDS011;33068;51.990;5.926;2023-12-07T05:21:52;467.95;;;74.07;;
47335;SDS011;33068;51.990;5.926;2023-12-07T05:24:20;175.27;;;56.10;;
47335;SDS011;33068;51.990;5.926;2023-12-07T05:26:47;207.48;;;55.47;;
47335;SDS011;33068;51.990;5.926;2023-12-07T05:29:15;230.77;;;61.58;;
47335;SDS011;33068;51.990;5.926;2023-12-07T05:31:44;227.48;;;60.33;;
47335;SDS011;33068;51.990;5.926;2023-12-07T05:34:11;464.20;;;74.20;;
47335;SDS011;33068;51.990;5.926;2023-12-07T05:36:39;392.58;;;67.97;;
47335;SDS011;33068;51.990;5.926;2023-12-07T05:39:06;208.23;;;59.97;;
47335;SDS011;33068;51.990;5.926;2023-12-07T05:41:36;250.77;;;62.60;;
47335;SDS011;33068;51.990;5.926;2023-12-07T05:44:03;204.50;;;54.05;;
47335;SDS011;33068;51.990;5.926;2023-12-07T05:46:35;469.23;;;74.85;;
47335;SDS011;33068;51.990;5.926;2023-12-07T05:49:12;281.35;;;62.58;;
47335;SDS011;33068;51.990;5.926;2023-12-07T05:51:41;271.58;;;60.42;;
47335;SDS011;33068;51.990;5.926;2023-12-07T05:54:08;379.05;;;68.40;;
47335;SDS011;33068;51.990;5.926;2023-12-07T05:56:38;569.75;;;81.45;;
47335;SDS011;33068;51.990;5.926;2023-12-07T05:59:05;434.35;;;70.82;;
47335;SDS011;33068;51.990;5.926;2023-12-07T06:01:33;149.45;;;50.65;;
47335;SDS011;33068;51.990;5.926;2023-12-07T06:04:03;265.50;;;62.42;;
47335;SDS011;33068;51.990;5.926;2023-12-07T06:06:32;344.10;;;64.95;;
47335;SDS011;33068;51.990;5.926;2023-12-07T06:09:00;113.28;;;44.72;;
47335;SDS011;33068;51.990;5.926;2023-12-07T06:11:28;254.13;;;56.15;;
47335;SDS011;33068;51.990;5.926;2023-12-07T06:13:58;284.83;;;58.67;;
47335;SDS011;33068;51.990;5.926;2023-12-07T06:16:29;477.17;;;74.10;;
47335;SDS011;33068;51.990;5.926;2023-12-07T06:18:56;220.80;;;57.25;;
47335;SDS011;33068;51.990;5.926;2023-12-07T06:21:30;172.82;;;53.10;;
47335;SDS011;33068;51.990;5.926;2023-12-07T06:24:00;283.55;;;67.50;;
47335;SDS011;33068;51.990;5.926;2023-12-07T06:26:27;376.85;;;70.60;;
47335;SDS011;33068;51.990;5.926;2023-12-07T06:28:58;169.45;;;51.15;;
47335;SDS011;33068;51.990;5.926;2023-12-07T06:31:26;97.70;;;39.95;;
47335;SDS011;33068;51.990;5.926;2023-12-07T06:34:05;169.15;;;46.15;;
47335;SDS011;33068;51.990;5.926;2023-12-07T06:36:36;523.58;;;74.38;;
47335;SDS011;33068;51.990;5.926;2023-12-07T06:39:05;160.45;;;55.45;;
47335;SDS011;33068;51.990;5.926;2023-12-07T06:41:36;581.25;;;91.43;;
47335;SDS011;33068;51.990;5.926;2023-12-07T06:44:10;283.58;;;85.75;;
47335;SDS011;33068;51.990;5.926;2023-12-07T06:46:37;426.80;;;95.72;;
47335;SDS011;33068;51.990;5.926;2023-12-07T06:49:07;192.30;;;68.93;;
47335;SDS011;33068;51.990;5.926;2023-12-07T06:51:38;297.88;;;71.28;;
47335;SDS011;33068;51.990;5.926;2023-12-07T06:54:07;567.33;;;86.40;;
47335;SDS011;33068;51.990;5.926;2023-12-07T06:56:48;319.40;;;67.57;;
47335;SDS011;33068;51.990;5.926;2023-12-07T06:59:18;404.75;;;69.65;;
47335;SDS011;33068;51.990;5.926;2023-12-07T07:01:47;226.77;;;64.85;;
47335;SDS011;33068;51.990;5.926;2023-12-07T07:04:15;528.50;;;81.85;;
47335;SDS011;33068;51.990;5.926;2023-12-07T07:06:46;355.02;;;74.95;;
47335;SDS011;33068;51.990;5.926;2023-12-07T07:09:17;243.50;;;62.80;;
47335;SDS011;33068;51.990;5.926;2023-12-07T07:11:46;124.22;;;48.28;;
47335;SDS011;33068;51.990;5.926;2023-12-07T07:14:14;127.10;;;47.10;;
47335;SDS011;33068;51.990;5.926;2023-12-07T07:16:42;248.55;;;60.10;;
47335;SDS011;33068;51.990;5.926;2023-12-07T07:19:10;115.20;;;43.15;;
47335;SDS011;33068;51.990;5.926;2023-12-07T07:21:37;153.32;;;52.97;;
47335;SDS011;33068;51.990;5.926;2023-12-07T07:24:05;603.97;;;85.35;;
47335;SDS011;33068;51.990;5.926;2023-12-07T07:26:36;349.42;;;69.10;;
47335;SDS011;33068;51.990;5.926;2023-12-07T07:29:03;289.70;;;68.10;;
47335;SDS011;33068;51.990;5.926;2023-12-07T07:31:31;251.90;;;62.70;;
47335;SDS011;33068;51.990;5.926;2023-12-07T07:34:03;148.88;;;53.05;;
47335;SDS011;33068;51.990;5.926;2023-12-07T07:36:31;169.35;;;59.05;;
47335;SDS011;33068;51.990;5.926;2023-12-07T07:39:04;222.23;;;63.08;;
47335;SDS011;33068;51.990;5.926;2023-12-07T07:41:35;116.95;;;50.67;;
47335;SDS011;33068;51.990;5.926;2023-12-07T07:44:03;232.65;;;61.40;;
47335;SDS011;33068;51.990;5.926;2023-12-07T07:46:31;106.15;;;47.05;;
47335;SDS011;33068;51.990;5.926;2023-12-07T07:49:01;261.70;;;65.30;;
47335;SDS011;33068;51.990;5.926;2023-12-07T07:51:29;121.07;;;53.35;;
47335;SDS011;33068;51.990;5.926;2023-12-07T07:54:04;393.65;;;72.43;;
47335;SDS011;33068;51.990;5.926;2023-12-07T07:56:35;324.23;;;64.72;;
47335;SDS011;33068;51.990;5.926;2023-12-07T07:59:03;139.48;;;50.60;;
47335;SDS011;33068;51.990;5.926;2023-12-07T08:01:31;253.05;;;60.30;;
47335;SDS011;33068;51.990;5.926;2023-12-07T08:04:01;364.95;;;76.47;;
47335;SDS011;33068;51.990;5.926;2023-12-07T08:06:28;143.90;;;56.10;;
47335;SDS011;33068;51.990;5.926;2023-12-07T08:08:56;117.22;;;49.92;;
47335;SDS011;33068;51.990;5.926;2023-12-07T08:11:31;171.15;;;48.70;;
47335;SDS011;33068;51.990;5.926;2023-12-07T08:14:17;314.92;;;65.63;;
47335;SDS011;33068;51.990;5.926;2023-12-07T08:16:44;293.92;;;64.10;;
47335;SDS011;33068;51.990;5.926;2023-12-07T08:19:14;212.40;;;57.53;;
47335;SDS011;33068;51.990;5.926;2023-12-07T08:21:42;355.40;;;69.43;;
47335;SDS011;33068;51.990;5.926;2023-12-07T08:24:10;291.77;;;63.70;;
47335;SDS011;33068;51.990;5.926;2023-12-07T08:26:40;219.00;;;51.85;;
47335;SDS011;33068;51.990;5.926;2023-12-07T08:29:07;144.52;;;50.60;;
47335;SDS011;33068;51.990;5.926;2023-12-07T08:31:39;262.73;;;60.17;;
47335;SDS011;33068;51.990;5.926;2023-12-07T08:34:07;345.85;;;64.22;;
47335;SDS011;33068;51.990;5.926;2023-12-07T08:36:34;184.38;;;56.28;;
47335;SDS011;33068;51.990;5.926;2023-12-07T08:39:05;464.70;;;73.57;;
47335;SDS011;33068;51.990;5.926;2023-12-07T08:41:35;173.35;;;54.70;;
47335;SDS011;33068;51.990;5.926;2023-12-07T08:44:03;388.83;;;69.13;;
47335;SDS011;33068;51.990;5.926;2023-12-07T08:46:30;497.55;;;71.25;;
47335;SDS011;33068;51.990;5.926;2023-12-07T08:49:07;291.40;;;58.92;;
47335;SDS011;33068;51.990;5.926;2023-12-07T08:51:35;253.73;;;53.25;;
47335;SDS011;33068;51.990;5.926;2023-12-07T08:54:02;327.05;;;62.00;;
47335;SDS011;33068;51.990;5.926;2023-12-07T08:56:32;279.55;;;61.65;;
47335;SDS011;33068;51.990;5.926;2023-12-07T08:59:02;330.50;;;68.72;;
47335;SDS011;33068;51.990;5.926;2023-12-07T09:01:29;452.55;;;71.53;;
47335;SDS011;33068;51.990;5.926;2023-12-07T09:03:58;182.88;;;57.72;;
47335;SDS011;33068;51.990;5.926;2023-12-07T09:06:29;325.58;;;81.57;;
47335;SDS011;33068;51.990;5.926;2023-12-07T09:08:57;454.02;;;87.78;;
47335;SDS011;33068;51.990;5.926;2023-12-07T09:11:24;518.90;;;76.13;;
47335;SDS011;33068;51.990;5.926;2023-12-07T09:13:52;336.30;;;61.58;;
47335;SDS011;33068;51.990;5.926;2023-12-07T09:16:52;148.93;;;51.25;;
47335;SDS011;33068;51.990;5.926;2023-12-07T09:19:20;438.35;;;71.13;;
47335;SDS011;33068;51.990;5.926;2023-12-07T09:21:48;394.02;;;71.60;;
47335;SDS011;33068;51.990;5.926;2023-12-07T09:24:16;478.75;;;76.20;;
47335;SDS011;33068;51.990;5.926;2023-12-07T09:26:46;164.32;;;55.88;;
47335;SDS011;33068;51.990;5.926;2023-12-07T09:29:14;311.42;;;66.82;;
47335;SDS011;33068;51.990;5.926;2023-12-07T09:31:42;498.98;;;74.50;;
47335;SDS011;33068;51.990;5.926;2023-12-07T09:34:11;305.23;;;58.25;;
47335;SDS011;33068;51.990;5.926;2023-12-07T09:36:42;182.80;;;49.88;;
47335;SDS011;33068;51.990;5.926;2023-12-07T09:39:14;307.10;;;58.58;;
47335;SDS011;33068;51.990;5.926;2023-12-07T09:41:41;334.70;;;60.20;;
47335;SDS011;33068;51.990;5.926;2023-12-07T09:44:12;288.73;;;52.20;;
47335;SDS011;33068;51.990;5.926;2023-12-07T09:46:40;252.70;;;50.17;;
47335;SDS011;33068;51.990;5.926;2023-12-07T09:49:11;183.90;;;37.13;;
47335;SDS011;33068;51.990;5.926;2023-12-07T09:51:39;176.18;;;40.25;;
47335;SDS011;33068;51.990;5.926;2023-12-07T09:54:08;138.48;;;33.58;;
47335;SDS011;33068;51.990;5.926;2023-12-07T09:56:38;237.05;;;44.03;;
47335;SDS011;33068;51.990;5.926;2023-12-07T09:59:06;181.63;;;38.90;;
47335;SDS011;33068;51.990;5.926;2023-12-07T10:01:33;195.77;;;38.47;;
47335;SDS011;33068;51.990;5.926;2023-12-07T10:04:19;86.00;;;31.80;;
47335;SDS011;33068;51.990;5.926;2023-12-07T10:06:48;169.88;;;38.03;;
47335;SDS011;33068;51.990;5.926;2023-12-07T10:09:19;237.52;;;40.70;;
47335;SDS011;33068;51.990;5.926;2023-12-07T10:11:47;219.90;;;42.70;;
47335;SDS011;33068;51.990;5.926;2023-12-07T10:14:15;166.48;;;34.38;;
47335;SDS011;33068;51.990;5.926;2023-12-07T10:16:52;183.13;;;31.65;;
47335;SDS011;33068;51.990;5.926;2023-12-07T10:19:22;173.95;;;30.65;;
47335;SDS011;33068;51.990;5.926;2023-12-07T10:21:50;106.15;;;26.77;;
47335;SDS011;33068;51.990;5.926;2023-12-07T10:24:18;116.65;;;26.08;;
47335;SDS011;33068;51.990;5.926;2023-12-07T10:26:46;182.20;;;29.35;;
47335;SDS011;33068;51.990;5.926;2023-12-07T10:29:16;103.15;;;26.38;;
47335;SDS011;33068;51.990;5.926;2023-12-07T10:31:45;108.80;;;25.83;;
47335;SDS011;33068;51.990;5.926;2023-12-07T10:34:13;235.90;;;30.58;;
47335;SDS011;33068;51.990;5.926;2023-12-07T10:36:51;101.72;;;24.55;;
47335;SDS011;33068;51.990;5.926;2023-12-07T10:39:29;138.77;;;26.73;;
47335;SDS011;33068;51.990;5.926;2023-12-07T10:41:57;185.43;;;31.02;;
47335;SDS011;33068;51.990;5.926;2023-12-07T10:44:29;125.68;;;28.95;;
47335;SDS011;33068;51.990;5.926;2023-12-07T10:47:04;136.88;;;27.55;;
47335;SDS011;33068;51.990;5.926;2023-12-07T10:49:35;126.22;;;27.67;;
47335;SDS011;33068;51.990;5.926;2023-12-07T10:52:12;214.07;;;32.53;;
47335;SDS011;33068;51.990;5.926;2023-12-07T10:54:42;191.63;;;37.05;;
47335;SDS011;33068;51.990;5.926;2023-12-07T10:57:11;229.55;;;33.05;;
47335;SDS011;33068;51.990;5.926;2023-12-07T10:59:46;218.02;;;36.92;;
47335;SDS011;33068;51.990;5.926;2023-12-07T11:02:16;202.82;;;35.35;;
47335;SDS011;33068;51.990;5.926;2023-12-07T11:04:46;149.93;;;30.60;;
47335;SDS011;33068;51.990;5.926;2023-12-07T11:07:17;218.27;;;35.97;;
47335;SDS011;33068;51.990;5.926;2023-12-07T11:09:50;236.02;;;44.75;;
47335;SDS011;33068;51.990;5.926;2023-12-07T11:12:23;223.18;;;38.85;;
47335;SDS011;33068;51.990;5.926;2023-12-07T11:14:58;239.13;;;39.13;;
47335;SDS011;33068;51.990;5.926;2023-12-07T11:17:47;283.92;;;40.45;;
47335;SDS011;33068;51.990;5.926;2023-12-07T11:20:18;296.17;;;41.47;;
47335;SDS011;33068;51.990;5.926;2023-12-07T11:22:47;239.32;;;41.63;;
47335;SDS011;33068;51.990;5.926;2023-12-07T11:25:15;202.60;;;37.83;;
47335;SDS011;33068;51.990;5.926;2023-12-07T11:27:47;286.55;;;42.42;;
47335;SDS011;33068;51.990;5.926;2023-12-07T11:30:15;358.52;;;48.15;;
47335;SDS011;33068;51.990;5.926;2023-12-07T11:32:45;301.20;;;46.45;;
47335;SDS011;33068;51.990;5.926;2023-12-07T11:35:23;212.25;;;42.60;;
47335;SDS011;33068;51.990;5.926;2023-12-07T11:38:02;288.45;;;45.53;;
47335;SDS011;33068;51.990;5.926;2023-12-07T11:40:32;224.32;;;43.63;;
47335;SDS011;33068;51.990;5.926;2023-12-07T11:43:00;240.13;;;45.42;;
47335;SDS011;33068;51.990;5.926;2023-12-07T11:45:40;224.45;;;45.53;;
47335;SDS011;33068;51.990;5.926;2023-12-07T11:48:13;268.67;;;46.22;;
47335;SDS011;33068;51.990;5.926;2023-12-07T11:50:55;170.80;;;43.20;;
47335;SDS011;33068;51.990;5.926;2023-12-07T11:53:25;226.45;;;46.63;;
47335;SDS011;33068;51.990;5.926;2023-12-07T11:55:53;220.35;;;47.63;;
47335;SDS011;33068;51.990;5.926;2023-12-07T11:58:21;166.90;;;43.92;;
47335;SDS011;33068;51.990;5.926;2023-12-07T12:00:50;173.10;;;45.05;;
47335;SDS011;33068;51.990;5.926;2023-12-07T12:03:18;282.70;;;47.92;;
47335;SDS011;33068;51.990;5.926;2023-12-07T12:05:46;206.20;;;46.17;;
47335;SDS011;33068;51.990;5.926;2023-12-07T12:08:13;209.15;;;47.03;;
47335;SDS011;33068;51.990;5.926;2023-12-07T12:10:46;165.30;;;44.30;;
47335;SDS011;33068;51.990;5.926;2023-12-07T12:13:17;152.20;;;42.83;;
47335;SDS011;33068;51.990;5.926;2023-12-07T12:15:45;155.30;;;43.88;;
47335;SDS011;33068;51.990;5.926;2023-12-07T12:18:13;160.02;;;41.53;;
47335;SDS011;33068;51.990;5.926;2023-12-07T12:20:41;168.95;;;43.22;;
47335;SDS011;33068;51.990;5.926;2023-12-07T12:23:09;165.15;;;45.63;;
47335;SDS011;33068;51.990;5.926;2023-12-07T12:25:36;154.95;;;41.33;;
47335;SDS011;33068;51.990;5.926;2023-12-07T12:28:09;162.18;;;41.75;;
47335;SDS011;33068;51.990;5.926;2023-12-07T12:30:37;151.00;;;42.15;;
47335;SDS011;33068;51.990;5.926;2023-12-07T12:33:04;160.23;;;43.97;;
47335;SDS011;33068;51.990;5.926;2023-12-07T12:35:32;160.88;;;44.28;;
47335;SDS011;33068;51.990;5.926;2023-12-07T12:38:01;197.25;;;48.17;;
47335;SDS011;33068;51.990;5.926;2023-12-07T12:40:32;182.07;;;48.78;;
47335;SDS011;33068;51.990;5.926;2023-12-07T12:43:04;195.43;;;48.53;;
47335;SDS011;33068;51.990;5.926;2023-12-07T12:45:34;188.85;;;48.63;;
47335;SDS011;33068;51.990;5.926;2023-12-07T12:48:01;190.75;;;44.92;;
47335;SDS011;33068;51.990;5.926;2023-12-07T12:50:32;194.07;;;47.38;;
47335;SDS011;33068;51.990;5.926;2023-12-07T12:53:02;168.63;;;45.47;;
47335;SDS011;33068;51.990;5.926;2023-12-07T12:55:30;149.93;;;42.22;;
47335;SDS011;33068;51.990;5.926;2023-12-07T12:57:58;145.40;;;40.40;;
47335;SDS011;33068;51.990;5.926;2023-12-07T13:00:26;151.00;;;41.53;;
47335;SDS011;33068;51.990;5.926;2023-12-07T13:02:55;157.23;;;40.45;;
47335;SDS011;33068;51.990;5.926;2023-12-07T13:05:23;154.80;;;42.17;;
47335;SDS011;33068;51.990;5.926;2023-12-07T13:07:50;180.57;;;46.05;;
47335;SDS011;33068;51.990;5.926;2023-12-07T13:10:17;143.77;;;40.60;;
47335;SDS011;33068;51.990;5.926;2023-12-07T13:12:46;149.80;;;40.63;;
47335;SDS011;33068;51.990;5.926;2023-12-07T13:15:13;161.95;;;45.67;;
47335;SDS011;33068;51.990;5.926;2023-12-07T13:17:41;180.32;;;45.83;;
47335;SDS011;33068;51.990;5.926;2023-12-07T13:20:10;166.57;;;45.63;;
47335;SDS011;33068;51.990;5.926;2023-12-07T13:22:38;173.30;;;47.83;;
47335;SDS011;33068;51.990;5.926;2023-12-07T13:25:08;174.65;;;47.55;;
47335;SDS011;33068;51.990;5.926;2023-12-07T13:27:39;143.10;;;41.97;;
47335;SDS011;33068;51.990;5.926;2023-12-07T13:30:10;177.18;;;46.50;;
47335;SDS011;33068;51.990;5.926;2023-12-07T13:32:37;162.07;;;44.25;;
47335;SDS011;33068;51.990;5.926;2023-12-07T13:35:05;147.60;;;46.97;;
47335;SDS011;33068;51.990;5.926;2023-12-07T13:37:35;155.68;;;47.08;;
47335;SDS011;33068;51.990;5.926;2023-12-07T13:40:02;164.57;;;48.08;;
47335;SDS011;33068;51.990;5.926;2023-12-07T13:42:32;161.88;;;47.92;;
47335;SDS011;33068;51.990;5.926;2023-12-07T13:44:59;151.00;;;43.88;;
47335;SDS011;33068;51.990;5.926;2023-12-07T13:47:27;156.88;;;47.38;;
47335;SDS011;33068;51.990;5.926;2023-12-07T13:49:57;139.80;;;44.30;;
47335;SDS011;33068;51.990;5.926;2023-12-07T13:52:24;148.60;;;47.95;;
47335;SDS011;33068;51.990;5.926;2023-12-07T13:54:53;133.60;;;41.20;;
47335;SDS011;33068;51.990;5.926;2023-12-07T13:57:21;150.07;;;47.60;;
47335;SDS011;33068;51.990;5.926;2023-12-07T13:59:49;122.80;;;42.72;;
47335;SDS011;33068;51.990;5.926;2023-12-07T14:02:17;142.68;;;49.20;;
47335;SDS011;33068;51.990;5.926;2023-12-07T14:04:45;137.10;;;48.60;;
47335;SDS011;33068;51.990;5.926;2023-12-07T14:07:15;122.95;;;46.70;;
47335;SDS011;33068;51.990;5.926;2023-12-07T14:09:43;136.73;;;48.70;;
47335;SDS011;33068;51.990;5.926;2023-12-07T14:12:12;139.63;;;50.65;;
47335;SDS011;33068;51.990;5.926;2023-12-07T14:14:40;139.30;;;50.35;;
47335;SDS011;33068;51.990;5.926;2023-12-07T14:17:08;149.70;;;54.38;;
47335;SDS011;33068;51.990;5.926;2023-12-07T14:19:36;143.63;;;51.17;;
47335;SDS011;33068;51.990;5.926;2023-12-07T14:22:03;142.60;;;51.92;;
47335;SDS011;33068;51.990;5.926;2023-12-07T14:24:35;145.90;;;54.10;;